sensor_id;sensor_type;location;lat;lon;timestamp;P1;durP1;ratioP1;P2;durP2;ratioP2
56399;SDS011;42298;53.638;9.876;2023-03-14T00:01:56;14.85;;;3.70;;
56399;SDS011;42298;53.638;9.876;2023-03-14T00:04:22;15.57;;;3.63;;
56399;SDS011;42298;53.638;9.876;2023-03-14T00:06:47;12.50;;;3.90;;
56399;SDS011;42298;53.638;9.876;2023-03-14T00:09:14;12.50;;;4.20;;
56399;SDS011;42298;53.638;9.876;2023-03-14T00:11:39;10.50;;;3.35;;
56399;SDS011;42298;53.638;9.876;2023-03-14T00:14:05;10.97;;;3.53;;
56399;SDS011;42298;53.638;9.876;2023-03-14T00:16:30;11.10;;;3.13;;
56399;SDS011;42298;53.638;9.876;2023-03-14T00:18:55;8.33;;;2.97;;
56399;SDS011;42298;53.638;9.876;2023-03-14T00:21:21;8.40;;;3.50;;
56399;SDS011;42298;53.638;9.876;2023-03-14T00:23:46;12.83;;;3.90;;
56399;SDS011;42298;53.638;9.876;2023-03-14T00:26:12;13.83;;;3.73;;
56399;SDS011;42298;53.638;9.876;2023-03-14T00:28:40;10.77;;;3.80;;
56399;SDS011;42298;53.638;9.876;2023-03-14T00:31:06;10.87;;;4.07;;
56399;SDS011;42298;53.638;9.876;2023-03-14T00:33:33;11.57;;;3.50;;
56399;SDS011;42298;53.638;9.876;2023-03-14T00:36:01;11.00;;;4.13;;
56399;SDS011;42298;53.638;9.876;2023-03-14T00:38:32;9.23;;;3.97;;
56399;SDS011;42298;53.638;9.876;2023-03-14T00:40:57;10.83;;;3.90;;
56399;SDS011;42298;53.638;9.876;2023-03-14T00:43:23;14.67;;;4.10;;
56399;SDS011;42298;53.638;9.876;2023-03-14T00:45:49;13.13;;;4.10;;
56399;SDS011;42298;53.638;9.876;2023-03-14T00:48:16;10.20;;;3.67;;
56399;SDS011;42298;53.638;9.876;2023-03-14T00:50:42;8.27;;;3.50;;
56399;SDS011;42298;53.638;9.876;2023-03-14T00:53:07;11.77;;;3.70;;
56399;SDS011;42298;53.638;9.876;2023-03-14T00:55:36;9.60;;;3.33;;
56399;SDS011;42298;53.638;9.876;2023-03-14T00:58:02;9.10;;;3.53;;
56399;SDS011;42298;53.638;9.876;2023-03-14T01:00:28;12.85;;;3.65;;
56399;SDS011;42298;53.638;9.876;2023-03-14T01:02:54;15.68;;;3.75;;
56399;SDS011;42298;53.638;9.876;2023-03-14T01:05:19;11.30;;;3.70;;
56399;SDS011;42298;53.638;9.876;2023-03-14T01:07:46;13.20;;;3.95;;
56399;SDS011;42298;53.638;9.876;2023-03-14T01:10:12;12.02;;;4.22;;
56399;SDS011;42298;53.638;9.876;2023-03-14T01:12:37;10.02;;;3.65;;
56399;SDS011;42298;53.638;9.876;2023-03-14T01:15:02;11.50;;;3.40;;
56399;SDS011;42298;53.638;9.876;2023-03-14T01:17:28;15.10;;;3.58;;
56399;SDS011;42298;53.638;9.876;2023-03-14T01:19:53;12.52;;;3.90;;
56399;SDS011;42298;53.638;9.876;2023-03-14T01:22:18;13.13;;;3.55;;
56399;SDS011;42298;53.638;9.876;2023-03-14T01:24:46;12.27;;;3.92;;
56399;SDS011;42298;53.638;9.876;2023-03-14T01:27:11;16.13;;;3.97;;
56399;SDS011;42298;53.638;9.876;2023-03-14T01:29:38;11.98;;;3.58;;
56399;SDS011;42298;53.638;9.876;2023-03-14T01:32:04;12.82;;;3.70;;
56399;SDS011;42298;53.638;9.876;2023-03-14T01:34:30;10.60;;;3.50;;
56399;SDS011;42298;53.638;9.876;2023-03-14T01:36:55;17.70;;;3.88;;
56399;SDS011;42298;53.638;9.876;2023-03-14T01:39:20;15.35;;;4.30;;
56399;SDS011;42298;53.638;9.876;2023-03-14T01:41:46;13.10;;;3.83;;
56399;SDS011;42298;53.638;9.876;2023-03-14T01:44:12;11.23;;;3.90;;
56399;SDS011;42298;53.638;9.876;2023-03-14T01:46:39;15.05;;;3.28;;
56399;SDS011;42298;53.638;9.876;2023-03-14T01:51:55;12.93;;;3.42;;
56399;SDS011;42298;53.638;9.876;2023-03-14T01:56:50;12.60;;;3.78;;
56399;SDS011;42298;53.638;9.876;2023-03-14T01:59:22;13.53;;;4.27;;
56399;SDS011;42298;53.638;9.876;2023-03-14T02:01:49;16.95;;;3.47;;
56399;SDS011;42298;53.638;9.876;2023-03-14T02:04:17;12.50;;;3.80;;
56399;SDS011;42298;53.638;9.876;2023-03-14T02:06:46;12.30;;;3.60;;
56399;SDS011;42298;53.638;9.876;2023-03-14T02:09:12;10.70;;;3.72;;
56399;SDS011;42298;53.638;9.876;2023-03-14T02:11:37;12.30;;;3.80;;
56399;SDS011;42298;53.638;9.876;2023-03-14T02:14:03;10.60;;;3.40;;
56399;SDS011;42298;53.638;9.876;2023-03-14T02:16:29;11.90;;;4.07;;
56399;SDS011;42298;53.638;9.876;2023-03-14T02:18:55;8.07;;;3.38;;
56399;SDS011;42298;53.638;9.876;2023-03-14T02:21:23;13.70;;;3.72;;
56399;SDS011;42298;53.638;9.876;2023-03-14T02:24:09;10.00;;;3.63;;
56399;SDS011;42298;53.638;9.876;2023-03-14T02:27:00;10.95;;;3.75;;
56399;SDS011;42298;53.638;9.876;2023-03-14T02:29:33;12.53;;;4.20;;
56399;SDS011;42298;53.638;9.876;2023-03-14T02:32:02;11.77;;;4.23;;
56399;SDS011;42298;53.638;9.876;2023-03-14T02:34:27;12.37;;;3.77;;
56399;SDS011;42298;53.638;9.876;2023-03-14T02:36:56;11.85;;;3.85;;
56399;SDS011;42298;53.638;9.876;2023-03-14T02:39:24;10.65;;;3.80;;
56399;SDS011;42298;53.638;9.876;2023-03-14T02:41:58;8.05;;;3.67;;
56399;SDS011;42298;53.638;9.876;2023-03-14T02:44:23;10.37;;;3.30;;
56399;SDS011;42298;53.638;9.876;2023-03-14T02:46:48;8.33;;;3.20;;
56399;SDS011;42298;53.638;9.876;2023-03-14T02:49:14;13.53;;;4.17;;
56399;SDS011;42298;53.638;9.876;2023-03-14T02:51:39;11.82;;;3.63;;
56399;SDS011;42298;53.638;9.876;2023-03-14T02:54:08;12.20;;;4.03;;
56399;SDS011;42298;53.638;9.876;2023-03-14T02:56:33;12.48;;;4.18;;
56399;SDS011;42298;53.638;9.876;2023-03-14T02:58:58;10.45;;;3.70;;
56399;SDS011;42298;53.638;9.876;2023-03-14T03:01:26;12.20;;;4.00;;
56399;SDS011;42298;53.638;9.876;2023-03-14T03:03:52;12.40;;;3.95;;
56399;SDS011;42298;53.638;9.876;2023-03-14T03:06:18;11.75;;;3.83;;
56399;SDS011;42298;53.638;9.876;2023-03-14T03:08:43;14.90;;;4.47;;
56399;SDS011;42298;53.638;9.876;2023-03-14T03:11:08;11.10;;;3.97;;
56399;SDS011;42298;53.638;9.876;2023-03-14T03:13:34;9.53;;;3.50;;
56399;SDS011;42298;53.638;9.876;2023-03-14T03:15:59;12.93;;;4.85;;
56399;SDS011;42298;53.638;9.876;2023-03-14T03:18:25;10.15;;;4.00;;
56399;SDS011;42298;53.638;9.876;2023-03-14T03:20:50;11.47;;;4.20;;
56399;SDS011;42298;53.638;9.876;2023-03-14T03:23:15;9.30;;;3.97;;
56399;SDS011;42298;53.638;9.876;2023-03-14T03:25:41;9.00;;;4.00;;
56399;SDS011;42298;53.638;9.876;2023-03-14T03:28:06;12.90;;;4.30;;
56399;SDS011;42298;53.638;9.876;2023-03-14T03:30:41;9.38;;;3.65;;
56399;SDS011;42298;53.638;9.876;2023-03-14T03:33:08;13.35;;;4.07;;
56399;SDS011;42298;53.638;9.876;2023-03-14T03:35:34;11.43;;;3.80;;
56399;SDS011;42298;53.638;9.876;2023-03-14T03:37:59;11.30;;;3.87;;
56399;SDS011;42298;53.638;9.876;2023-03-14T03:40:25;9.53;;;3.60;;
56399;SDS011;42298;53.638;9.876;2023-03-14T03:42:50;11.63;;;4.07;;
56399;SDS011;42298;53.638;9.876;2023-03-14T03:45:16;11.02;;;4.00;;
56399;SDS011;42298;53.638;9.876;2023-03-14T03:47:41;11.95;;;3.83;;
56399;SDS011;42298;53.638;9.876;2023-03-14T03:50:07;9.50;;;4.05;;
56399;SDS011;42298;53.638;9.876;2023-03-14T03:52:32;10.37;;;3.53;;
56399;SDS011;42298;53.638;9.876;2023-03-14T03:54:58;8.95;;;3.47;;
56399;SDS011;42298;53.638;9.876;2023-03-14T03:57:23;11.35;;;3.75;;
56399;SDS011;42298;53.638;9.876;2023-03-14T03:59:48;11.38;;;4.13;;
56399;SDS011;42298;53.638;9.876;2023-03-14T04:02:13;9.05;;;3.70;;
56399;SDS011;42298;53.638;9.876;2023-03-14T04:04:39;13.90;;;4.07;;
56399;SDS011;42298;53.638;9.876;2023-03-14T04:07:04;26.58;;;4.53;;
56399;SDS011;42298;53.638;9.876;2023-03-14T04:09:30;11.05;;;4.03;;
56399;SDS011;42298;53.638;9.876;2023-03-14T04:11:56;9.73;;;3.80;;
56399;SDS011;42298;53.638;9.876;2023-03-14T04:14:21;11.52;;;3.97;;
56399;SDS011;42298;53.638;9.876;2023-03-14T04:16:47;10.77;;;4.00;;
56399;SDS011;42298;53.638;9.876;2023-03-14T04:19:12;12.77;;;3.53;;
56399;SDS011;42298;53.638;9.876;2023-03-14T04:21:37;12.85;;;4.18;;
56399;SDS011;42298;53.638;9.876;2023-03-14T04:24:05;8.00;;;3.53;;
56399;SDS011;42298;53.638;9.876;2023-03-14T04:26:31;11.57;;;3.95;;
56399;SDS011;42298;53.638;9.876;2023-03-14T04:28:56;9.23;;;3.70;;
56399;SDS011;42298;53.638;9.876;2023-03-14T04:31:21;9.15;;;3.63;;
56399;SDS011;42298;53.638;9.876;2023-03-14T04:33:47;12.02;;;3.90;;
56399;SDS011;42298;53.638;9.876;2023-03-14T04:36:12;10.23;;;3.80;;
56399;SDS011;42298;53.638;9.876;2023-03-14T04:38:39;7.75;;;2.33;;
56399;SDS011;42298;53.638;9.876;2023-03-14T04:41:04;8.50;;;2.30;;
56399;SDS011;42298;53.638;9.876;2023-03-14T04:43:32;5.23;;;1.80;;
56399;SDS011;42298;53.638;9.876;2023-03-14T04:45:57;5.03;;;1.90;;
56399;SDS011;42298;53.638;9.876;2023-03-14T04:48:23;4.67;;;1.70;;
56399;SDS011;42298;53.638;9.876;2023-03-14T04:50:50;6.50;;;1.80;;
56399;SDS011;42298;53.638;9.876;2023-03-14T04:53:16;5.67;;;1.40;;
56399;SDS011;42298;53.638;9.876;2023-03-14T04:55:47;6.70;;;1.80;;
56399;SDS011;42298;53.638;9.876;2023-03-14T04:58:13;9.07;;;1.93;;
56399;SDS011;42298;53.638;9.876;2023-03-14T05:00:38;3.38;;;1.45;;
56399;SDS011;42298;53.638;9.876;2023-03-14T05:03:04;5.57;;;1.70;;
56399;SDS011;42298;53.638;9.876;2023-03-14T05:05:29;3.67;;;1.55;;
56399;SDS011;42298;53.638;9.876;2023-03-14T05:07:54;4.97;;;1.67;;
56399;SDS011;42298;53.638;9.876;2023-03-14T05:10:19;6.67;;;1.87;;
56399;SDS011;42298;53.638;9.876;2023-03-14T05:12:45;6.53;;;1.90;;
56399;SDS011;42298;53.638;9.876;2023-03-14T05:15:10;4.13;;;1.83;;
56399;SDS011;42298;53.638;9.876;2023-03-14T05:17:36;5.37;;;1.90;;
56399;SDS011;42298;53.638;9.876;2023-03-14T05:20:01;6.53;;;2.37;;
56399;SDS011;42298;53.638;9.876;2023-03-14T05:22:32;5.83;;;1.93;;
56399;SDS011;42298;53.638;9.876;2023-03-14T05:24:57;7.00;;;2.03;;
56399;SDS011;42298;53.638;9.876;2023-03-14T05:27:23;7.27;;;2.30;;
56399;SDS011;42298;53.638;9.876;2023-03-14T05:29:50;7.00;;;2.30;;
56399;SDS011;42298;53.638;9.876;2023-03-14T05:32:15;6.67;;;2.20;;
56399;SDS011;42298;53.638;9.876;2023-03-14T05:34:41;5.53;;;2.30;;
56399;SDS011;42298;53.638;9.876;2023-03-14T05:37:06;6.47;;;2.70;;
56399;SDS011;42298;53.638;9.876;2023-03-14T05:39:32;9.33;;;2.70;;
56399;SDS011;42298;53.638;9.876;2023-03-14T05:41:57;8.03;;;2.70;;
56399;SDS011;42298;53.638;9.876;2023-03-14T05:44:22;8.23;;;2.80;;
56399;SDS011;42298;53.638;9.876;2023-03-14T05:46:48;5.70;;;2.47;;
56399;SDS011;42298;53.638;9.876;2023-03-14T05:49:13;7.47;;;2.77;;
56399;SDS011;42298;53.638;9.876;2023-03-14T05:51:38;8.77;;;3.23;;
56399;SDS011;42298;53.638;9.876;2023-03-14T05:54:04;9.50;;;3.03;;
56399;SDS011;42298;53.638;9.876;2023-03-14T05:56:29;7.47;;;3.00;;
56399;SDS011;42298;53.638;9.876;2023-03-14T05:58:55;8.23;;;3.70;;
56399;SDS011;42298;53.638;9.876;2023-03-14T06:01:20;8.33;;;3.50;;
56399;SDS011;42298;53.638;9.876;2023-03-14T06:03:45;9.37;;;3.77;;
56399;SDS011;42298;53.638;9.876;2023-03-14T06:06:10;8.30;;;3.60;;
56399;SDS011;42298;53.638;9.876;2023-03-14T06:08:36;11.00;;;4.13;;
56399;SDS011;42298;53.638;9.876;2023-03-14T06:11:02;13.73;;;4.93;;
56399;SDS011;42298;53.638;9.876;2023-03-14T06:13:28;10.93;;;4.73;;
56399;SDS011;42298;53.638;9.876;2023-03-14T06:15:54;13.80;;;5.30;;
56399;SDS011;42298;53.638;9.876;2023-03-14T06:18:19;12.37;;;5.77;;
56399;SDS011;42298;53.638;9.876;2023-03-14T06:20:45;9.48;;;5.10;;
56399;SDS011;42298;53.638;9.876;2023-03-14T06:23:10;16.47;;;6.47;;
56399;SDS011;42298;53.638;9.876;2023-03-14T06:25:36;12.13;;;5.87;;
56399;SDS011;42298;53.638;9.876;2023-03-14T06:28:02;12.13;;;5.40;;
56399;SDS011;42298;53.638;9.876;2023-03-14T06:30:28;12.80;;;6.60;;
56399;SDS011;42298;53.638;9.876;2023-03-14T06:32:54;14.50;;;6.60;;
56399;SDS011;42298;53.638;9.876;2023-03-14T06:35:20;13.40;;;7.20;;
56399;SDS011;42298;53.638;9.876;2023-03-14T06:37:46;12.17;;;6.90;;
56399;SDS011;42298;53.638;9.876;2023-03-14T06:40:12;16.03;;;7.67;;
56399;SDS011;42298;53.638;9.876;2023-03-14T06:42:41;16.15;;;8.05;;
56399;SDS011;42298;53.638;9.876;2023-03-14T06:45:09;14.50;;;7.00;;
56399;SDS011;42298;53.638;9.876;2023-03-14T06:47:35;14.70;;;7.00;;
56399;SDS011;42298;53.638;9.876;2023-03-14T06:50:00;14.15;;;7.20;;
56399;SDS011;42298;53.638;9.876;2023-03-14T06:52:28;13.13;;;6.57;;
56399;SDS011;42298;53.638;9.876;2023-03-14T06:55:00;12.90;;;5.90;;
56399;SDS011;42298;53.638;9.876;2023-03-14T06:57:30;13.48;;;5.45;;
56399;SDS011;42298;53.638;9.876;2023-03-14T06:59:55;15.07;;;6.00;;
56399;SDS011;42298;53.638;9.876;2023-03-14T07:02:21;13.50;;;5.15;;
56399;SDS011;42298;53.638;9.876;2023-03-14T07:04:48;13.35;;;5.10;;
56399;SDS011;42298;53.638;9.876;2023-03-14T07:07:13;13.60;;;5.63;;
56399;SDS011;42298;53.638;9.876;2023-03-14T07:09:38;11.70;;;4.63;;
56399;SDS011;42298;53.638;9.876;2023-03-14T07:12:04;13.70;;;4.73;;
56399;SDS011;42298;53.638;9.876;2023-03-14T07:14:30;9.50;;;3.97;;
56399;SDS011;42298;53.638;9.876;2023-03-14T07:16:56;11.55;;;3.85;;
56399;SDS011;42298;53.638;9.876;2023-03-14T07:19:21;10.40;;;3.33;;
56399;SDS011;42298;53.638;9.876;2023-03-14T07:21:47;10.57;;;3.80;;
56399;SDS011;42298;53.638;9.876;2023-03-14T07:24:15;13.07;;;3.70;;
56399;SDS011;42298;53.638;9.876;2023-03-14T07:26:40;11.10;;;3.60;;
56399;SDS011;42298;53.638;9.876;2023-03-14T07:29:05;12.40;;;4.00;;
56399;SDS011;42298;53.638;9.876;2023-03-14T07:31:31;9.10;;;3.05;;
56399;SDS011;42298;53.638;9.876;2023-03-14T07:33:56;8.93;;;2.90;;
56399;SDS011;42298;53.638;9.876;2023-03-14T07:36:21;11.30;;;3.00;;
56399;SDS011;42298;53.638;9.876;2023-03-14T07:38:47;10.02;;;3.13;;
56399;SDS011;42298;53.638;9.876;2023-03-14T07:41:12;6.45;;;2.50;;
56399;SDS011;42298;53.638;9.876;2023-03-14T07:43:39;9.95;;;2.70;;
56399;SDS011;42298;53.638;9.876;2023-03-14T07:46:05;8.48;;;3.00;;
56399;SDS011;42298;53.638;9.876;2023-03-14T07:48:32;11.02;;;3.20;;
56399;SDS011;42298;53.638;9.876;2023-03-14T07:50:58;6.33;;;2.57;;
56399;SDS011;42298;53.638;9.876;2023-03-14T07:53:23;10.45;;;3.13;;
56399;SDS011;42298;53.638;9.876;2023-03-14T07:55:50;10.77;;;2.80;;
56399;SDS011;42298;53.638;9.876;2023-03-14T07:58:18;8.20;;;2.42;;
56399;SDS011;42298;53.638;9.876;2023-03-14T08:00:44;11.00;;;3.10;;
56399;SDS011;42298;53.638;9.876;2023-03-14T08:03:09;8.97;;;2.77;;
56399;SDS011;42298;53.638;9.876;2023-03-14T08:05:35;9.85;;;3.03;;
56399;SDS011;42298;53.638;9.876;2023-03-14T08:08:02;10.80;;;3.85;;
56399;SDS011;42298;53.638;9.876;2023-03-14T08:10:27;11.43;;;3.53;;
56399;SDS011;42298;53.638;9.876;2023-03-14T08:12:53;9.43;;;3.13;;
56399;SDS011;42298;53.638;9.876;2023-03-14T08:15:20;9.07;;;3.45;;
56399;SDS011;42298;53.638;9.876;2023-03-14T08:17:45;10.60;;;2.92;;
56399;SDS011;42298;53.638;9.876;2023-03-14T08:20:16;10.27;;;3.17;;
56399;SDS011;42298;53.638;9.876;2023-03-14T08:22:42;8.13;;;2.70;;
56399;SDS011;42298;53.638;9.876;2023-03-14T08:25:07;7.13;;;3.08;;
56399;SDS011;42298;53.638;9.876;2023-03-14T08:27:33;8.88;;;2.70;;
56399;SDS011;42298;53.638;9.876;2023-03-14T08:29:58;6.88;;;2.30;;
56399;SDS011;42298;53.638;9.876;2023-03-14T08:32:24;7.72;;;2.40;;
56399;SDS011;42298;53.638;9.876;2023-03-14T08:34:49;9.82;;;2.85;;
56399;SDS011;42298;53.638;9.876;2023-03-14T08:37:14;5.53;;;2.30;;
56399;SDS011;42298;53.638;9.876;2023-03-14T08:39:40;8.77;;;2.75;;
56399;SDS011;42298;53.638;9.876;2023-03-14T08:42:10;8.70;;;2.40;;
56399;SDS011;42298;53.638;9.876;2023-03-14T08:44:35;9.15;;;2.35;;
56399;SDS011;42298;53.638;9.876;2023-03-14T08:47:01;6.55;;;2.25;;
56399;SDS011;42298;53.638;9.876;2023-03-14T08:49:26;9.75;;;2.60;;
56399;SDS011;42298;53.638;9.876;2023-03-14T08:51:51;12.23;;;2.72;;
56399;SDS011;42298;53.638;9.876;2023-03-14T08:54:16;6.38;;;2.33;;
56399;SDS011;42298;53.638;9.876;2023-03-14T08:56:42;7.70;;;2.60;;
56399;SDS011;42298;53.638;9.876;2023-03-14T08:59:07;8.82;;;3.22;;
56399;SDS011;42298;53.638;9.876;2023-03-14T09:01:33;12.00;;;3.10;;
56399;SDS011;42298;53.638;9.876;2023-03-14T09:03:58;9.30;;;2.80;;
56399;SDS011;42298;53.638;9.876;2023-03-14T09:06:23;9.32;;;3.53;;
56399;SDS011;42298;53.638;9.876;2023-03-14T09:08:49;9.67;;;3.30;;
56399;SDS011;42298;53.638;9.876;2023-03-14T09:11:14;9.60;;;3.33;;
56399;SDS011;42298;53.638;9.876;2023-03-14T09:13:40;8.32;;;3.08;;
56399;SDS011;42298;53.638;9.876;2023-03-14T09:16:06;10.15;;;3.35;;
56399;SDS011;42298;53.638;9.876;2023-03-14T09:18:31;7.88;;;3.22;;
56399;SDS011;42298;53.638;9.876;2023-03-14T09:20:57;9.95;;;3.25;;
56399;SDS011;42298;53.638;9.876;2023-03-14T09:23:22;17.05;;;3.90;;
56399;SDS011;42298;53.638;9.876;2023-03-14T09:25:47;7.80;;;3.15;;
56399;SDS011;42298;53.638;9.876;2023-03-14T09:28:13;10.35;;;3.85;;
56399;SDS011;42298;53.638;9.876;2023-03-14T09:30:39;10.60;;;3.78;;
56399;SDS011;42298;53.638;9.876;2023-03-14T09:33:05;9.77;;;3.58;;
56399;SDS011;42298;53.638;9.876;2023-03-14T09:35:30;14.30;;;3.83;;
56399;SDS011;42298;53.638;9.876;2023-03-14T09:37:55;13.20;;;4.40;;
56399;SDS011;42298;53.638;9.876;2023-03-14T09:40:21;14.45;;;4.70;;
56399;SDS011;42298;53.638;9.876;2023-03-14T09:42:50;4.32;;;1.50;;
56399;SDS011;42298;53.638;9.876;2023-03-14T09:45:35;2.58;;;1.10;;
56399;SDS011;42298;53.638;9.876;2023-03-14T09:48:04;5.25;;;1.70;;
56399;SDS011;42298;53.638;9.876;2023-03-14T09:50:40;4.80;;;1.73;;
56399;SDS011;42298;53.638;9.876;2023-03-14T09:53:18;6.78;;;1.77;;
56399;SDS011;42298;53.638;9.876;2023-03-14T09:55:47;5.03;;;1.63;;
56399;SDS011;42298;53.638;9.876;2023-03-14T09:58:19;4.87;;;1.57;;
56399;SDS011;42298;53.638;9.876;2023-03-14T10:00:45;6.07;;;1.43;;
56399;SDS011;42298;53.638;9.876;2023-03-14T10:05:37;4.87;;;1.60;;
56399;SDS011;42298;53.638;9.876;2023-03-14T10:08:03;6.43;;;2.30;;
56399;SDS011;42298;53.638;9.876;2023-03-14T10:10:29;4.23;;;1.57;;
56399;SDS011;42298;53.638;9.876;2023-03-14T10:13:10;4.33;;;1.80;;
56399;SDS011;42298;53.638;9.876;2023-03-14T10:15:40;3.23;;;1.13;;
56399;SDS011;42298;53.638;9.876;2023-03-14T10:18:09;1.97;;;1.30;;
56399;SDS011;42298;53.638;9.876;2023-03-14T10:20:44;2.57;;;1.00;;
56399;SDS011;42298;53.638;9.876;2023-03-14T10:25:40;2.57;;;1.00;;
56399;SDS011;42298;53.638;9.876;2023-03-14T10:28:26;1.93;;;1.20;;
56399;SDS011;42298;53.638;9.876;2023-03-14T10:30:54;1.50;;;1.20;;
56399;SDS011;42298;53.638;9.876;2023-03-14T10:33:21;1.37;;;1.00;;
56399;SDS011;42298;53.638;9.876;2023-03-14T10:35:53;0.93;;;0.90;;
56399;SDS011;42298;53.638;9.876;2023-03-14T10:38:26;2.10;;;0.93;;
56399;SDS011;42298;53.638;9.876;2023-03-14T10:40:54;1.60;;;0.90;;
56399;SDS011;42298;53.638;9.876;2023-03-14T10:43:33;3.07;;;1.00;;
56399;SDS011;42298;53.638;9.876;2023-03-14T10:46:02;0.90;;;0.90;;
56399;SDS011;42298;53.638;9.876;2023-03-14T10:48:35;2.80;;;1.00;;
56399;SDS011;42298;53.638;9.876;2023-03-14T10:51:06;2.17;;;1.20;;
56399;SDS011;42298;53.638;9.876;2023-03-14T10:53:33;1.10;;;1.00;;
56399;SDS011;42298;53.638;9.876;2023-03-14T10:56:13;1.70;;;1.07;;
56399;SDS011;42298;53.638;9.876;2023-03-14T10:58:48;1.57;;;0.83;;
56399;SDS011;42298;53.638;9.876;2023-03-14T11:07:04;1.63;;;1.03;;
56399;SDS011;42298;53.638;9.876;2023-03-14T11:09:45;1.30;;;1.20;;
56399;SDS011;42298;53.638;9.876;2023-03-14T11:12:32;3.00;;;1.07;;
56399;SDS011;42298;53.638;9.876;2023-03-14T11:17:57;6.47;;;1.93;;
56399;SDS011;42298;53.638;9.876;2023-03-14T11:23:21;4.90;;;1.53;;
56399;SDS011;42298;53.638;9.876;2023-03-14T11:25:56;5.87;;;1.50;;
56399;SDS011;42298;53.638;9.876;2023-03-14T11:28:39;4.70;;;1.80;;
56399;SDS011;42298;53.638;9.876;2023-03-14T11:31:20;5.07;;;1.53;;
56399;SDS011;42298;53.638;9.876;2023-03-14T11:39:20;5.77;;;1.70;;
56399;SDS011;42298;53.638;9.876;2023-03-14T11:41:49;6.50;;;1.80;;
56399;SDS011;42298;53.638;9.876;2023-03-14T11:44:18;3.87;;;1.60;;
56399;SDS011;42298;53.638;9.876;2023-03-14T11:47:02;6.47;;;1.73;;
56399;SDS011;42298;53.638;9.876;2023-03-14T11:52:10;8.87;;;1.83;;
56399;SDS011;42298;53.638;9.876;2023-03-14T11:54:50;5.67;;;1.50;;
56399;SDS011;42298;53.638;9.876;2023-03-14T11:57:20;5.53;;;1.63;;
56399;SDS011;42298;53.638;9.876;2023-03-14T11:59:51;6.70;;;1.60;;
56399;SDS011;42298;53.638;9.876;2023-03-14T12:10:52;7.90;;;1.97;;
56399;SDS011;42298;53.638;9.876;2023-03-14T12:13:29;7.33;;;2.00;;
56399;SDS011;42298;53.638;9.876;2023-03-14T12:15:59;9.80;;;2.10;;
56399;SDS011;42298;53.638;9.876;2023-03-14T12:18:29;12.33;;;2.93;;
56399;SDS011;42298;53.638;9.876;2023-03-14T12:21:00;11.00;;;2.63;;
56399;SDS011;42298;53.638;9.876;2023-03-14T12:23:33;10.80;;;2.47;;
56399;SDS011;42298;53.638;9.876;2023-03-14T12:28:43;12.33;;;2.40;;
56399;SDS011;42298;53.638;9.876;2023-03-14T12:36:45;7.90;;;2.27;;
56399;SDS011;42298;53.638;9.876;2023-03-14T12:42:10;14.17;;;2.70;;
56399;SDS011;42298;53.638;9.876;2023-03-14T12:44:49;9.60;;;2.47;;
56399;SDS011;42298;53.638;9.876;2023-03-14T12:52:14;10.17;;;2.70;;
56399;SDS011;42298;53.638;9.876;2023-03-14T12:57:33;13.63;;;2.70;;
56399;SDS011;42298;53.638;9.876;2023-03-14T13:00:18;12.73;;;3.13;;
56399;SDS011;42298;53.638;9.876;2023-03-14T13:02:46;10.20;;;2.63;;
56399;SDS011;42298;53.638;9.876;2023-03-14T13:05:23;15.00;;;3.50;;
56399;SDS011;42298;53.638;9.876;2023-03-14T13:10:24;12.90;;;3.13;;
56399;SDS011;42298;53.638;9.876;2023-03-14T13:12:55;13.97;;;3.33;;
56399;SDS011;42298;53.638;9.876;2023-03-14T13:15:46;13.10;;;3.10;;
56399;SDS011;42298;53.638;9.876;2023-03-14T13:18:18;16.57;;;3.03;;
56399;SDS011;42298;53.638;9.876;2023-03-14T13:20:54;8.70;;;2.13;;
56399;SDS011;42298;53.638;9.876;2023-03-14T13:23:24;16.37;;;3.17;;
56399;SDS011;42298;53.638;9.876;2023-03-14T13:25:52;12.90;;;2.83;;
56399;SDS011;42298;53.638;9.876;2023-03-14T13:28:18;8.23;;;2.50;;
56399;SDS011;42298;53.638;9.876;2023-03-14T13:30:44;11.00;;;2.27;;
56399;SDS011;42298;53.638;9.876;2023-03-14T13:33:12;14.50;;;2.67;;
56399;SDS011;42298;53.638;9.876;2023-03-14T13:35:42;11.17;;;2.27;;
56399;SDS011;42298;53.638;9.876;2023-03-14T13:38:15;11.57;;;2.80;;
56399;SDS011;42298;53.638;9.876;2023-03-14T13:40:44;10.77;;;2.40;;
56399;SDS011;42298;53.638;9.876;2023-03-14T13:43:13;10.53;;;2.50;;
56399;SDS011;42298;53.638;9.876;2023-03-14T13:45:45;10.10;;;2.63;;
56399;SDS011;42298;53.638;9.876;2023-03-14T13:48:19;9.67;;;2.27;;
56399;SDS011;42298;53.638;9.876;2023-03-14T13:50:51;12.83;;;2.87;;
56399;SDS011;42298;53.638;9.876;2023-03-14T13:53:18;13.83;;;2.43;;
56399;SDS011;42298;53.638;9.876;2023-03-14T13:55:44;16.90;;;3.27;;
56399;SDS011;42298;53.638;9.876;2023-03-14T13:58:11;12.17;;;2.90;;
56399;SDS011;42298;53.638;9.876;2023-03-14T14:00:45;12.87;;;3.13;;
56399;SDS011;42298;53.638;9.876;2023-03-14T14:03:19;11.67;;;2.60;;
56399;SDS011;42298;53.638;9.876;2023-03-14T14:05:45;9.80;;;2.87;;
56399;SDS011;42298;53.638;9.876;2023-03-14T14:08:11;13.63;;;2.73;;
56399;SDS011;42298;53.638;9.876;2023-03-14T14:10:37;12.50;;;3.00;;
56399;SDS011;42298;53.638;9.876;2023-03-14T14:13:03;8.93;;;2.30;;
56399;SDS011;42298;53.638;9.876;2023-03-14T14:15:33;15.17;;;2.70;;
56399;SDS011;42298;53.638;9.876;2023-03-14T14:18:08;11.80;;;2.40;;
56399;SDS011;42298;53.638;9.876;2023-03-14T14:20:41;10.53;;;2.27;;
56399;SDS011;42298;53.638;9.876;2023-03-14T14:23:10;8.00;;;2.57;;
56399;SDS011;42298;53.638;9.876;2023-03-14T14:25:43;9.97;;;2.47;;
56399;SDS011;42298;53.638;9.876;2023-03-14T14:31:23;11.30;;;2.33;;
56399;SDS011;42298;53.638;9.876;2023-03-14T14:36:19;10.07;;;2.77;;
56399;SDS011;42298;53.638;9.876;2023-03-14T14:39:21;7.83;;;2.10;;
56399;SDS011;42298;53.638;9.876;2023-03-14T14:41:51;13.23;;;2.50;;
56399;SDS011;42298;53.638;9.876;2023-03-14T14:44:20;9.63;;;2.33;;
56399;SDS011;42298;53.638;9.876;2023-03-14T14:46:54;9.03;;;2.20;;
56399;SDS011;42298;53.638;9.876;2023-03-14T14:49:20;8.90;;;2.40;;
56399;SDS011;42298;53.638;9.876;2023-03-14T14:52:00;8.57;;;1.97;;
56399;SDS011;42298;53.638;9.876;2023-03-14T14:54:34;8.60;;;2.30;;
56399;SDS011;42298;53.638;9.876;2023-03-14T14:57:05;10.27;;;2.60;;
56399;SDS011;42298;53.638;9.876;2023-03-14T14:59:42;14.37;;;3.07;;
56399;SDS011;42298;53.638;9.876;2023-03-14T15:02:35;10.63;;;2.70;;
56399;SDS011;42298;53.638;9.876;2023-03-14T15:04:59;12.07;;;2.40;;
56399;SDS011;42298;53.638;9.876;2023-03-14T15:07:24;10.93;;;2.53;;
56399;SDS011;42298;53.638;9.876;2023-03-14T15:09:50;14.17;;;3.10;;
56399;SDS011;42298;53.638;9.876;2023-03-14T15:12:15;8.43;;;2.30;;
56399;SDS011;42298;53.638;9.876;2023-03-14T15:14:41;14.10;;;2.83;;
56399;SDS011;42298;53.638;9.876;2023-03-14T15:17:08;14.13;;;3.00;;
56399;SDS011;42298;53.638;9.876;2023-03-14T15:19:36;17.07;;;3.07;;
56399;SDS011;42298;53.638;9.876;2023-03-14T15:22:01;12.70;;;2.33;;
56399;SDS011;42298;53.638;9.876;2023-03-14T15:24:27;13.07;;;2.73;;
56399;SDS011;42298;53.638;9.876;2023-03-14T15:26:52;12.07;;;2.93;;
56399;SDS011;42298;53.638;9.876;2023-03-14T15:29:18;9.83;;;2.57;;
56399;SDS011;42298;53.638;9.876;2023-03-14T15:31:44;14.13;;;3.23;;
56399;SDS011;42298;53.638;9.876;2023-03-14T15:34:09;13.50;;;2.83;;
56399;SDS011;42298;53.638;9.876;2023-03-14T15:36:35;14.83;;;2.90;;
56399;SDS011;42298;53.638;9.876;2023-03-14T15:39:03;11.80;;;2.70;;
56399;SDS011;42298;53.638;9.876;2023-03-14T15:41:31;9.77;;;2.90;;
56399;SDS011;42298;53.638;9.876;2023-03-14T15:43:56;13.57;;;3.03;;
56399;SDS011;42298;53.638;9.876;2023-03-14T15:46:22;13.70;;;2.70;;
56399;SDS011;42298;53.638;9.876;2023-03-14T15:48:49;11.23;;;2.83;;
56399;SDS011;42298;53.638;9.876;2023-03-14T15:51:15;12.03;;;2.90;;